Herman, Kentucky
Current Conditions -  °F | °C
As of 11:52 PM on Saturday 20 Dec 2014 (Local Time) from KCKV Reporting Station
Clear Clear  
Wind Chill: 26°   Ceiling: Unl
Heat Index: 26°   Visibility: 8mi
Dew Point: 24°   Wind: 0mph
Humidity: 92%   Direction: NA
Pressure: 30.28"   Gusts: NA
Location:  36.705°N, 87.1786°W
Report Text: KCKV 210552Z AUTO 00000KT 8SM CLR M03/M04 A3028 RMK AO2 SLP258 T10331044 10017 21033 400501033 50000
Loading
Personal Weather Stations






























Interactive Weather Map New forecast layout! Learn more

10-Day Weather Forecast

Advertisements
Track Severe Weather on mobile